Time;durP1;ratioP1;P1;durP2;ratioP2;P2;SDS_P1;SDS_P2;PMS_P1;PMS_P2;Temp;Humidity;BMP_temperature;BMP_pressure;BME280_temperature;BME280_humidity;BME280_pressure;Samples;Min_cycle;Max_cycle;Signal;HPM_P1;HPM_P2
2022/10/28 00:00:49;;;;;;;4.93;2.50;;;;;;;;;;5112214;28;20227;-31
2022/10/28 00:03:16;;;;;;;2.77;2.30;;;;;;;;;;5104568;28;20204;-33
2022/10/28 00:05:43;;;;;;;3.57;2.60;;;;;;;;;;5096073;28;20208;-36
2022/10/28 00:08:12;;;;;;;3.77;2.50;;;;;;;;;;5117400;28;20219;-34
2022/10/28 00:10:39;;;;;;;2.77;2.57;;;;;;;;;;5109763;28;20218;-32
2022/10/28 00:13:06;;;;;;;6.37;2.60;;;;;;;;;;5101500;28;20225;-37
2022/10/28 00:15:34;;;;;;;3.63;2.63;;;;;;;;;;5100268;28;20208;-33
2022/10/28 00:18:01;;;;;;;3.57;2.20;;;;;;;;;;5127256;28;20230;-33
2022/10/28 00:20:30;;;;;;;4.20;2.83;;;;;;;;;;5106564;28;20221;-28
2022/10/28 00:22:57;;;;;;;4.30;2.50;;;;;;;;;;5118442;28;20196;-33
2022/10/28 00:25:25;;;;;;;2.57;2.10;;;;;;;;;;5113503;28;20212;-32
2022/10/28 00:27:53;;;;;;;2.00;1.80;;;;;;;;;;5110131;28;20200;-35
2022/10/28 00:30:20;;;;;;;6.80;2.83;;;;;;;;;;5109229;28;20227;-33
2022/10/28 00:32:47;;;;;;;5.77;2.80;;;;;;;;;;5112490;28;20547;-29
2022/10/28 00:35:14;;;;;;;2.87;2.40;;;;;;;;;;5107814;28;20545;-30
2022/10/28 00:37:41;;;;;;;4.80;2.50;;;;;;;;;;5116096;27;20191;-32
2022/10/28 00:40:09;;;;;;;4.17;3.00;;;;;;;;;;5113907;27;20229;-33
2022/10/28 00:42:37;;;;;;;4.13;2.40;;;;;;;;;;5099773;28;20192;-34
2022/10/28 00:45:06;;;;;;;3.30;2.43;;;;;;;;;;5105568;27;20204;-34
2022/10/28 00:47:54;;;;;;;3.40;2.53;;;;;;;;;;5119432;27;20301;-30
2022/10/28 00:50:33;;;;;;;3.93;2.53;;;;;;;;;;5097813;27;20226;-34
2022/10/28 00:53:02;;;;;;;7.93;2.23;;;;;;;;;;5111506;28;20217;-36
2022/10/28 00:55:30;;;;;;;4.73;2.60;;;;;;;;;;5113570;28;20210;-31
2022/10/28 00:57:59;;;;;;;3.87;2.23;;;;;;;;;;5100287;28;20211;-33
2022/10/28 01:00:27;;;;;;;6.53;2.63;;;;;;;;;;5109639;28;20234;-35
2022/10/28 01:02:54;;;;;;;3.90;2.30;;;;;;;;;;5108040;27;20198;-34
2022/10/28 01:05:22;;;;;;;8.47;2.37;;;;;;;;;;5101046;27;20197;-31
2022/10/28 01:07:50;;;;;;;5.73;2.20;;;;;;;;;;5131985;27;20195;-33
2022/10/28 01:10:18;;;;;;;5.33;2.50;;;;;;;;;;5135303;27;20716;-32
2022/10/28 01:12:54;;;;;;;5.50;2.70;;;;;;;;;;5114436;27;20220;-32
2022/10/28 01:15:28;;;;;;;5.60;2.50;;;;;;;;;;5109402;27;20203;-33
2022/10/28 01:17:58;;;;;;;5.53;2.77;;;;;;;;;;5133330;27;20670;-32
2022/10/28 01:20:35;;;;;;;5.30;2.50;;;;;;;;;;5102439;27;20311;-31
2022/10/28 01:23:05;;;;;;;10.10;2.90;;;;;;;;;;5119690;27;20215;-31
2022/10/28 01:25:53;;;;;;;4.63;2.50;;;;;;;;;;5112648;28;20207;-34
2022/10/28 01:28:29;;;;;;;2.33;1.97;;;;;;;;;;5070733;28;20206;-29
2022/10/28 01:31:13;;;;;;;2.67;2.33;;;;;;;;;;5106663;28;20230;-35
2022/10/28 01:33:45;;;;;;;3.97;2.40;;;;;;;;;;5114847;27;20219;-28
2022/10/28 01:36:15;;;;;;;5.23;2.87;;;;;;;;;;5116396;27;20204;-31
2022/10/28 01:38:45;;;;;;;4.87;2.33;;;;;;;;;;5114605;27;20200;-35
2022/10/28 01:41:16;;;;;;;4.37;3.00;;;;;;;;;;5103561;28;20221;-29
2022/10/28 01:43:46;;;;;;;3.97;2.50;;;;;;;;;;5104918;27;20192;-34
2022/10/28 01:46:16;;;;;;;5.17;2.50;;;;;;;;;;5111225;28;20208;-32
2022/10/28 01:48:46;;;;;;;2.00;1.90;;;;;;;;;;5105178;28;20209;-34
2022/10/28 01:51:17;;;;;;;4.73;2.27;;;;;;;;;;5113375;27;20223;-33
2022/10/28 01:53:46;;;;;;;2.73;1.97;;;;;;;;;;5112992;27;20564;-35
2022/10/28 01:56:16;;;;;;;3.67;2.50;;;;;;;;;;5103438;28;20200;-29
2022/10/28 01:58:43;;;;;;;7.23;2.60;;;;;;;;;;5103533;28;20211;-34
2022/10/28 02:01:11;;;;;;;4.47;2.40;;;;;;;;;;5113062;27;20228;-32
2022/10/28 02:03:38;;;;;;;4.20;2.77;;;;;;;;;;5109721;27;20212;-30
2022/10/28 02:06:07;;;;;;;5.33;2.30;;;;;;;;;;5101981;27;20209;-36
2022/10/28 02:08:42;;;;;;;2.33;2.07;;;;;;;;;;5125498;27;20196;-35
2022/10/28 02:11:30;;;;;;;4.83;2.40;;;;;;;;;;5112085;28;20227;-31
2022/10/28 02:14:02;;;;;;;3.90;2.40;;;;;;;;;;5092040;28;20225;-34
2022/10/28 02:16:34;;;;;;;4.80;2.30;;;;;;;;;;5115220;27;20196;-32
2022/10/28 02:19:03;;;;;;;5.10;2.60;;;;;;;;;;5118019;27;20668;-33
2022/10/28 02:21:36;;;;;;;2.70;2.30;;;;;;;;;;5113938;27;20211;-33
2022/10/28 02:24:09;;;;;;;3.83;2.40;;;;;;;;;;5107380;28;20294;-31
2022/10/28 02:26:38;;;;;;;3.47;2.27;;;;;;;;;;5105992;28;20676;-30
2022/10/28 02:29:07;;;;;;;3.30;1.93;;;;;;;;;;5112062;27;20654;-34
2022/10/28 02:31:37;;;;;;;4.30;2.13;;;;;;;;;;5127364;27;20232;-33
2022/10/28 02:34:07;;;;;;;4.37;2.70;;;;;;;;;;5104940;27;20233;-31
2022/10/28 02:36:37;;;;;;;4.07;2.20;;;;;;;;;;5099522;28;20650;-33
2022/10/28 02:39:06;;;;;;;6.00;2.50;;;;;;;;;;5121140;27;20569;-34
2022/10/28 02:41:35;;;;;;;3.83;2.20;;;;;;;;;;5131812;27;20234;-35
2022/10/28 02:44:06;;;;;;;1.67;1.57;;;;;;;;;;5101391;27;20200;-29
2022/10/28 02:46:34;;;;;;;4.10;2.30;;;;;;;;;;5125519;27;20207;-32
2022/10/28 02:49:03;;;;;;;4.10;2.20;;;;;;;;;;5106066;27;20204;-36
2022/10/28 02:51:31;;;;;;;9.13;3.17;;;;;;;;;;5112364;27;20221;-32
2022/10/28 02:54:02;;;;;;;2.50;2.30;;;;;;;;;;5115900;27;20239;-30
2022/10/28 02:56:30;;;;;;;3.10;2.47;;;;;;;;;;5111222;28;20626;-31
2022/10/28 02:58:57;;;;;;;4.23;2.33;;;;;;;;;;5104825;28;20211;-34
2022/10/28 03:01:25;;;;;;;8.03;2.43;;;;;;;;;;5098683;28;20220;-32
2022/10/28 03:03:52;;;;;;;4.73;2.40;;;;;;;;;;5112518;27;20567;-34
2022/10/28 03:06:19;;;;;;;5.60;2.53;;;;;;;;;;5103940;28;20206;-35
2022/10/28 03:08:46;;;;;;;3.03;2.20;;;;;;;;;;5118528;27;20203;-31
2022/10/28 03:11:14;;;;;;;7.37;2.60;;;;;;;;;;5119504;27;20247;-31
2022/10/28 03:13:41;;;;;;;3.10;2.23;;;;;;;;;;5111140;27;20406;-35
2022/10/28 03:16:09;;;;;;;2.43;2.20;;;;;;;;;;5110187;28;20196;-33
2022/10/28 03:18:36;;;;;;;5.57;2.20;;;;;;;;;;5104181;28;20204;-30
2022/10/28 03:21:03;;;;;;;8.70;2.73;;;;;;;;;;5109277;27;20718;-34
2022/10/28 03:23:30;;;;;;;2.80;2.43;;;;;;;;;;5118899;27;20204;-33
2022/10/28 03:25:57;;;;;;;2.77;2.30;;;;;;;;;;5096346;28;20207;-30
2022/10/28 03:28:26;;;;;;;4.17;2.40;;;;;;;;;;5100196;28;20200;-32
2022/10/28 03:30:53;;;;;;;4.73;2.60;;;;;;;;;;5109272;28;20226;-35
2022/10/28 03:33:20;;;;;;;7.40;2.63;;;;;;;;;;5101290;27;20199;-31
2022/10/28 03:35:47;;;;;;;4.63;2.50;;;;;;;;;;5107536;28;20200;-28
2022/10/28 03:38:14;;;;;;;6.77;2.43;;;;;;;;;;5113190;28;20211;-32
2022/10/28 03:40:41;;;;;;;5.27;2.20;;;;;;;;;;5128217;27;20229;-35
2022/10/28 03:43:08;;;;;;;6.50;2.47;;;;;;;;;;5099408;28;20212;-34
2022/10/28 03:45:37;;;;;;;4.50;2.40;;;;;;;;;;5101139;28;20204;-33
2022/10/28 03:48:04;;;;;;;3.87;2.27;;;;;;;;;;5126858;28;20207;-33
2022/10/28 03:50:31;;;;;;;4.20;2.23;;;;;;;;;;5095892;28;20224;-31
2022/10/28 03:52:59;;;;;;;7.00;3.07;;;;;;;;;;5122151;28;20213;-35
2022/10/28 03:55:26;;;;;;;7.07;5.97;;;;;;;;;;5129444;28;20226;-35
2022/10/28 03:57:53;;;;;;;8.90;4.60;;;;;;;;;;5106903;28;20249;-33
2022/10/28 04:00:20;;;;;;;4.03;3.63;;;;;;;;;;5110707;27;20233;-37
2022/10/28 04:02:51;;;;;;;5.97;3.37;;;;;;;;;;5116764;28;20228;-33
2022/10/28 04:05:19;;;;;;;4.20;3.37;;;;;;;;;;5116527;27;20195;-34
2022/10/28 04:07:46;;;;;;;5.60;2.93;;;;;;;;;;5122739;27;20202;-33
2022/10/28 04:10:13;;;;;;;5.10;2.77;;;;;;;;;;5134485;27;20215;-30
2022/10/28 04:12:40;;;;;;;6.07;3.00;;;;;;;;;;5104721;27;20206;-35
2022/10/28 04:15:08;;;;;;;3.97;2.50;;;;;;;;;;5109166;28;20255;-34
2022/10/28 04:17:36;;;;;;;4.33;2.50;;;;;;;;;;5128192;27;20198;-33
2022/10/28 04:20:05;;;;;;;7.03;2.70;;;;;;;;;;5114573;27;20581;-33
2022/10/28 04:22:32;;;;;;;3.00;2.70;;;;;;;;;;5108179;28;20214;-30
2022/10/28 04:24:59;;;;;;;4.93;2.60;;;;;;;;;;5122240;27;20642;-30
2022/10/28 04:27:26;;;;;;;6.53;2.83;;;;;;;;;;5110949;28;20206;-32
2022/10/28 04:29:53;;;;;;;3.03;2.50;;;;;;;;;;5105745;27;20225;-31
2022/10/28 04:32:20;;;;;;;3.27;2.30;;;;;;;;;;5120586;27;20210;-31
2022/10/28 04:34:47;;;;;;;3.87;2.20;;;;;;;;;;5105055;27;20232;-34
2022/10/28 04:37:16;;;;;;;4.60;2.33;;;;;;;;;;5121094;27;20203;-29
2022/10/28 04:39:43;;;;;;;2.53;2.23;;;;;;;;;;5136949;27;20203;-30
2022/10/28 04:42:10;;;;;;;3.50;2.57;;;;;;;;;;5127031;27;20214;-34
2022/10/28 04:44:37;;;;;;;4.30;2.40;;;;;;;;;;5122992;27;20206;-33
2022/10/28 04:47:05;;;;;;;7.30;2.60;;;;;;;;;;5133859;27;20203;-33
2022/10/28 04:49:32;;;;;;;6.80;2.30;;;;;;;;;;5119129;27;20210;-30
2022/10/28 04:51:59;;;;;;;5.83;2.90;;;;;;;;;;5118682;27;20200;-32
2022/10/28 04:54:28;;;;;;;2.83;2.50;;;;;;;;;;5101306;28;20316;-29
2022/10/28 04:56:55;;;;;;;4.07;2.27;;;;;;;;;;5123666;27;20200;-32
2022/10/28 04:59:22;;;;;;;4.80;2.80;;;;;;;;;;5105964;27;20210;-29
2022/10/28 05:01:49;;;;;;;4.17;2.50;;;;;;;;;;5112096;27;20227;-33
2022/10/28 05:04:16;;;;;;;4.73;2.53;;;;;;;;;;5103646;28;20192;-31
2022/10/28 05:06:44;;;;;;;4.00;2.10;;;;;;;;;;5105657;27;20287;-34
2022/10/28 05:09:11;;;;;;;4.27;2.30;;;;;;;;;;5110346;28;20200;-28
2022/10/28 05:11:39;;;;;;;5.93;2.40;;;;;;;;;;5107522;27;20609;-31
2022/10/28 05:14:06;;;;;;;8.13;2.50;;;;;;;;;;5109024;28;20231;-36
2022/10/28 05:16:34;;;;;;;5.47;3.13;;;;;;;;;;5110770;28;20204;-33
2022/10/28 05:19:01;;;;;;;5.03;2.80;;;;;;;;;;5105056;28;20205;-33
2022/10/28 05:21:28;;;;;;;10.67;3.17;;;;;;;;;;5106950;27;20230;-28
2022/10/28 05:23:55;;;;;;;3.77;2.80;;;;;;;;;;5109933;28;20232;-33
2022/10/28 05:26:22;;;;;;;3.60;2.60;;;;;;;;;;5110717;28;20247;-31
2022/10/28 05:28:51;;;;;;;4.00;2.50;;;;;;;;;;5106735;28;20604;-32
2022/10/28 05:31:19;;;;;;;8.73;3.20;;;;;;;;;;5108682;28;20220;-29
2022/10/28 05:33:46;;;;;;;2.43;2.23;;;;;;;;;;5113472;27;20193;-30
2022/10/28 05:36:13;;;;;;;4.97;3.03;;;;;;;;;;5330586;22;20226;-37
2022/10/28 05:38:41;;;;;;;5.27;2.37;;;;;;;;;;5063686;28;20209;-38
2022/10/28 05:41:08;;;;;;;2.97;2.40;;;;;;;;;;5050429;28;20229;-37
2022/10/28 05:43:35;;;;;;;3.00;2.33;;;;;;;;;;5060537;28;20201;-36
2022/10/28 05:46:04;;;;;;;5.60;3.07;;;;;;;;;;5057824;28;20217;-34
2022/10/28 05:48:31;;;;;;;4.70;3.13;;;;;;;;;;5059442;28;20205;-35
2022/10/28 05:50:58;;;;;;;5.87;2.73;;;;;;;;;;5065635;28;20229;-38
2022/10/28 05:53:25;;;;;;;8.53;3.10;;;;;;;;;;5059647;28;20209;-35
2022/10/28 05:55:52;;;;;;;4.17;2.80;;;;;;;;;;5072724;28;20221;-35
2022/10/28 05:58:19;;;;;;;4.87;2.80;;;;;;;;;;5076849;28;20566;-38
2022/10/28 06:00:46;;;;;;;9.07;2.70;;;;;;;;;;5053576;28;20228;-36
2022/10/28 06:03:15;;;;;;;5.50;2.73;;;;;;;;;;5058609;28;20197;-35
2022/10/28 06:05:43;;;;;;;4.33;3.20;;;;;;;;;;5060149;28;20233;-34
2022/10/28 06:08:11;;;;;;;4.43;2.63;;;;;;;;;;5060731;28;20312;-33
2022/10/28 06:10:40;;;;;;;5.23;2.77;;;;;;;;;;5061424;28;20218;-31
2022/10/28 06:13:07;;;;;;;3.83;2.80;;;;;;;;;;5061062;28;20215;-33
2022/10/28 06:15:34;;;;;;;5.30;2.80;;;;;;;;;;5062686;28;20266;-33
2022/10/28 06:18:02;;;;;;;7.03;2.53;;;;;;;;;;5061345;28;20216;-35
2022/10/28 06:20:30;;;;;;;5.97;3.47;;;;;;;;;;5059775;28;20232;-34
2022/10/28 06:22:57;;;;;;;5.80;2.90;;;;;;;;;;5062039;28;20215;-34
2022/10/28 06:25:25;;;;;;;8.27;3.30;;;;;;;;;;5072936;28;20204;-31
2022/10/28 06:27:53;;;;;;;8.53;3.80;;;;;;;;;;5053629;28;20205;-35
2022/10/28 06:30:20;;;;;;;5.23;3.20;;;;;;;;;;5054718;28;20217;-34
2022/10/28 06:32:47;;;;;;;5.40;3.27;;;;;;;;;;5062947;28;20216;-35
2022/10/28 06:35:14;;;;;;;4.53;3.33;;;;;;;;;;5056537;28;20275;-31
2022/10/28 06:37:43;;;;;;;4.10;2.83;;;;;;;;;;5058574;28;20208;-34
2022/10/28 06:40:10;;;;;;;9.00;3.20;;;;;;;;;;5069013;28;20309;-34
2022/10/28 06:42:38;;;;;;;5.10;3.33;;;;;;;;;;5060130;28;20228;-32
2022/10/28 06:45:08;;;;;;;4.57;3.43;;;;;;;;;;5061190;28;20251;-36
2022/10/28 06:47:35;;;;;;;7.97;3.50;;;;;;;;;;5053687;28;20660;-32
2022/10/28 06:50:02;;;;;;;4.20;3.07;;;;;;;;;;5069264;28;20224;-35
2022/10/28 06:52:29;;;;;;;8.87;3.37;;;;;;;;;;5078739;28;20247;-35
2022/10/28 06:54:57;;;;;;;7.90;3.63;;;;;;;;;;5081190;28;20217;-33
2022/10/28 06:57:25;;;;;;;7.13;3.27;;;;;;;;;;5083571;28;20204;-37
2022/10/28 06:59:52;;;;;;;4.50;2.90;;;;;;;;;;5067172;28;20230;-36
2022/10/28 07:02:19;;;;;;;6.80;3.50;;;;;;;;;;5060345;28;20201;-36
2022/10/28 07:04:46;;;;;;;6.17;2.97;;;;;;;;;;5056789;28;20195;-36
2022/10/28 07:07:13;;;;;;;7.47;3.40;;;;;;;;;;5055127;28;20292;-30
2022/10/28 07:09:41;;;;;;;5.03;3.10;;;;;;;;;;5051615;28;20674;-34
2022/10/28 07:12:10;;;;;;;4.17;3.37;;;;;;;;;;5062860;28;20210;-37
2022/10/28 07:14:37;;;;;;;9.90;3.27;;;;;;;;;;5072820;28;20205;-38
2022/10/28 07:17:05;;;;;;;4.53;3.10;;;;;;;;;;5072847;28;20592;-35
2022/10/28 07:19:33;;;;;;;10.17;3.27;;;;;;;;;;5064993;28;20202;-35
2022/10/28 07:22:00;;;;;;;7.00;3.47;;;;;;;;;;5069361;28;20300;-33
2022/10/28 07:24:34;;;;;;;4.60;3.60;;;;;;;;;;5071758;28;20200;-34
2022/10/28 07:27:01;;;;;;;4.73;3.10;;;;;;;;;;5074921;28;20244;-34
2022/10/28 07:29:30;;;;;;;4.83;3.17;;;;;;;;;;5049739;28;20212;-33
2022/10/28 07:31:57;;;;;;;7.43;3.07;;;;;;;;;;5071231;28;20199;-32
2022/10/28 07:34:24;;;;;;;5.67;3.30;;;;;;;;;;5060248;28;20204;-34
2022/10/28 07:36:52;;;;;;;4.10;2.93;;;;;;;;;;5051926;28;20221;-33
2022/10/28 07:39:19;;;;;;;4.00;2.83;;;;;;;;;;5043452;28;20294;-36
2022/10/28 07:41:48;;;;;;;9.43;3.57;;;;;;;;;;5049789;28;20226;-32
2022/10/28 07:44:15;;;;;;;5.33;3.33;;;;;;;;;;5052833;28;20193;-35
2022/10/28 07:46:44;;;;;;;8.27;3.50;;;;;;;;;;5065565;28;20194;-35
2022/10/28 07:49:18;;;;;;;4.60;3.10;;;;;;;;;;5067588;28;20212;-34
2022/10/28 07:51:47;;;;;;;7.80;3.57;;;;;;;;;;5061519;28;20213;-33
2022/10/28 07:54:14;;;;;;;8.10;4.00;;;;;;;;;;5056538;28;20212;-33
2022/10/28 07:56:45;;;;;;;6.77;3.50;;;;;;;;;;5070305;28;20588;-34
2022/10/28 07:59:13;;;;;;;9.77;3.40;;;;;;;;;;5060335;28;20562;-35
2022/10/28 08:01:40;;;;;;;6.10;3.23;;;;;;;;;;5056708;28;20223;-35
2022/10/28 08:04:08;;;;;;;6.20;3.80;;;;;;;;;;5064568;28;20206;-35
2022/10/28 08:06:36;;;;;;;9.60;3.80;;;;;;;;;;5052595;28;20204;-35
2022/10/28 08:09:04;;;;;;;6.43;3.93;;;;;;;;;;5071320;28;20209;-35
2022/10/28 08:11:31;;;;;;;6.87;3.53;;;;;;;;;;5071837;28;20226;-32
2022/10/28 08:13:59;;;;;;;7.97;4.00;;;;;;;;;;5062523;28;20328;-34
2022/10/28 08:16:27;;;;;;;11.27;4.67;;;;;;;;;;5063679;28;20213;-34
2022/10/28 08:18:55;;;;;;;6.33;3.60;;;;;;;;;;5051570;28;20206;-34
2022/10/28 08:21:25;;;;;;;7.77;3.47;;;;;;;;;;5065114;28;20221;-36
2022/10/28 08:23:54;;;;;;;7.87;4.20;;;;;;;;;;5062189;28;20238;-38
2022/10/28 08:26:21;;;;;;;6.37;3.63;;;;;;;;;;5070769;28;20194;-34
2022/10/28 08:28:48;;;;;;;5.17;4.37;;;;;;;;;;5063110;28;20742;-37
2022/10/28 08:31:16;;;;;;;8.73;5.00;;;;;;;;;;5059639;28;20233;-33
2022/10/28 08:33:45;;;;;;;10.30;5.70;;;;;;;;;;5045868;28;20240;-34
2022/10/28 08:36:13;;;;;;;10.03;4.73;;;;;;;;;;5061471;28;20237;-35
2022/10/28 08:38:44;;;;;;;5.57;4.47;;;;;;;;;;5068193;28;20567;-36
2022/10/28 08:41:29;;;;;;;8.83;4.27;;;;;;;;;;5061082;28;20230;-35
2022/10/28 08:44:03;;;;;;;7.43;4.73;;;;;;;;;;5045726;28;20554;-36
2022/10/28 08:46:38;;;;;;;9.00;4.63;;;;;;;;;;5059576;28;20202;-34
2022/10/28 08:49:10;;;;;;;7.17;4.57;;;;;;;;;;5061312;28;20202;-34
2022/10/28 08:51:40;;;;;;;6.70;4.30;;;;;;;;;;5054602;28;20709;-31
2022/10/28 08:54:13;;;;;;;9.23;4.97;;;;;;;;;;5052646;28;20213;-34
2022/10/28 08:56:44;;;;;;;7.90;4.33;;;;;;;;;;5055496;28;20607;-32
2022/10/28 08:59:23;;;;;;;8.10;4.70;;;;;;;;;;5066789;28;20202;-35
2022/10/28 09:01:52;;;;;;;9.60;5.17;;;;;;;;;;5067770;28;20732;-34
2022/10/28 09:04:23;;;;;;;14.60;6.00;;;;;;;;;;5064216;28;20203;-34
2022/10/28 09:06:50;;;;;;;7.40;5.70;;;;;;;;;;5057949;28;20231;-35
2022/10/28 09:09:20;;;;;;;11.53;5.60;;;;;;;;;;5051892;28;20285;-33
2022/10/28 09:11:52;;;;;;;8.13;5.23;;;;;;;;;;5055310;28;20887;-35
2022/10/28 09:14:26;;;;;;;10.03;4.90;;;;;;;;;;5065393;28;20300;-34
2022/10/28 09:17:01;;;;;;;9.87;5.43;;;;;;;;;;5049775;28;20222;-34
2022/10/28 09:19:36;;;;;;;9.07;5.43;;;;;;;;;;5053441;28;20205;-37
2022/10/28 09:22:09;;;;;;;7.83;4.97;;;;;;;;;;5064899;28;20278;-32
2022/10/28 09:24:44;;;;;;;7.23;5.30;;;;;;;;;;5075383;28;20197;-35
2022/10/28 09:27:15;;;;;;;7.83;5.67;;;;;;;;;;5075859;28;20200;-34
2022/10/28 09:29:45;;;;;;;6.33;4.80;;;;;;;;;;5063177;28;20194;-34
2022/10/28 09:32:18;;;;;;;7.30;5.20;;;;;;;;;;5065338;28;20300;-35
2022/10/28 09:34:47;;;;;;;7.73;5.43;;;;;;;;;;5058689;28;20190;-33
2022/10/28 09:37:18;;;;;;;11.07;5.93;;;;;;;;;;5068205;28;20236;-33
2022/10/28 09:39:48;;;;;;;9.50;5.70;;;;;;;;;;5063763;28;20208;-34
2022/10/28 09:42:18;;;;;;;8.97;5.13;;;;;;;;;;5050645;28;20203;-33
2022/10/28 09:44:49;;;;;;;11.07;5.40;;;;;;;;;;5059540;28;20438;-35
2022/10/28 09:47:20;;;;;;;12.43;5.33;;;;;;;;;;5065809;28;20198;-34
2022/10/28 09:49:47;;;;;;;6.97;5.17;;;;;;;;;;5058735;28;20288;-36
2022/10/28 09:52:18;;;;;;;10.30;5.10;;;;;;;;;;5062635;28;20209;-34
2022/10/28 09:54:49;;;;;;;7.47;5.77;;;;;;;;;;5062848;28;20309;-35
2022/10/28 09:57:16;;;;;;;10.50;5.30;;;;;;;;;;5074101;28;20205;-35
2022/10/28 09:59:43;;;;;;;11.80;5.73;;;;;;;;;;5071931;28;20202;-35
2022/10/28 10:02:20;;;;;;;19.17;6.40;;;;;;;;;;5055904;28;20203;-33
2022/10/28 10:04:48;;;;;;;9.27;6.53;;;;;;;;;;5045146;28;20202;-35
2022/10/28 10:07:20;;;;;;;11.30;6.87;;;;;;;;;;5049244;28;20321;-37
2022/10/28 10:09:48;;;;;;;11.97;5.80;;;;;;;;;;5057876;28;20194;-32
2022/10/28 10:12:15;;;;;;;14.27;5.53;;;;;;;;;;5057115;28;20203;-33
2022/10/28 10:14:44;;;;;;;8.50;5.30;;;;;;;;;;5059185;28;20221;-34
2022/10/28 10:17:13;;;;;;;8.63;4.80;;;;;;;;;;5070395;28;20225;-35
2022/10/28 10:20:01;;;;;;;12.27;5.90;;;;;;;;;;5056482;28;20648;-34
2022/10/28 10:22:32;;;;;;;8.37;5.13;;;;;;;;;;5059036;28;20202;-30
2022/10/28 10:25:00;;;;;;;13.73;6.07;;;;;;;;;;5051651;28;20262;-34
2022/10/28 10:27:29;;;;;;;11.07;5.83;;;;;;;;;;5063611;28;20204;-34
2022/10/28 10:30:02;;;;;;;6.77;5.40;;;;;;;;;;5067668;28;20449;-36
2022/10/28 10:32:31;;;;;;;8.73;5.90;;;;;;;;;;5062865;28;20208;-35
2022/10/28 10:35:00;;;;;;;17.43;5.90;;;;;;;;;;5059877;28;20220;-33
2022/10/28 10:37:27;;;;;;;15.10;5.60;;;;;;;;;;5057200;28;20236;-36
2022/10/28 10:40:03;;;;;;;10.93;5.20;;;;;;;;;;5074924;28;20223;-33
2022/10/28 10:42:30;;;;;;;9.67;5.10;;;;;;;;;;5065559;28;20198;-36
2022/10/28 10:45:01;;;;;;;14.30;5.67;;;;;;;;;;5050603;28;20220;-32
2022/10/28 10:47:28;;;;;;;10.30;5.40;;;;;;;;;;5057478;28;20209;-36
2022/10/28 10:50:14;;;;;;;9.27;5.37;;;;;;;;;;5058209;28;20218;-36
2022/10/28 10:52:48;;;;;;;11.97;5.47;;;;;;;;;;5057555;28;20193;-36
2022/10/28 10:55:21;;;;;;;9.27;5.33;;;;;;;;;;5067998;28;20678;-33
2022/10/28 10:57:49;;;;;;;10.67;5.20;;;;;;;;;;5072112;28;20229;-36
2022/10/28 11:00:17;;;;;;;10.00;5.70;;;;;;;;;;5055122;28;20218;-36
2022/10/28 11:02:46;;;;;;;8.13;5.20;;;;;;;;;;5049031;28;20210;-32
2022/10/28 11:05:20;;;;;;;7.53;5.40;;;;;;;;;;5045789;28;20213;-38
2022/10/28 11:07:51;;;;;;;11.00;5.70;;;;;;;;;;5069998;28;20190;-36
2022/10/28 11:10:24;;;;;;;9.00;5.17;;;;;;;;;;5070034;28;20229;-33
2022/10/28 11:12:52;;;;;;;8.97;5.20;;;;;;;;;;5071163;28;20215;-34
2022/10/28 11:15:27;;;;;;;9.83;5.73;;;;;;;;;;5052018;28;20314;-36
2022/10/28 11:17:54;;;;;;;10.43;5.63;;;;;;;;;;5068508;28;20238;-34
2022/10/28 11:20:24;;;;;;;9.90;4.90;;;;;;;;;;5053175;28;20225;-34
2022/10/28 11:22:54;;;;;;;7.30;4.73;;;;;;;;;;5053481;28;20212;-31
2022/10/28 11:25:29;;;;;;;7.63;5.17;;;;;;;;;;5071821;28;20211;-32
2022/10/28 11:28:01;;;;;;;8.03;5.13;;;;;;;;;;5072999;28;20571;-36
2022/10/28 11:30:35;;;;;;;10.73;5.27;;;;;;;;;;5056102;28;20304;-33
2022/10/28 11:33:08;;;;;;;10.80;5.17;;;;;;;;;;5048788;28;20198;-35
2022/10/28 11:35:39;;;;;;;11.07;4.53;;;;;;;;;;5063194;28;20573;-33
2022/10/28 11:38:10;;;;;;;10.47;4.70;;;;;;;;;;5052721;28;20594;-36
2022/10/28 11:40:43;;;;;;;7.73;4.67;;;;;;;;;;5049916;28;20283;-34
2022/10/28 11:43:19;;;;;;;11.37;4.97;;;;;;;;;;5047069;28;20201;-33
2022/10/28 11:45:50;;;;;;;8.53;4.80;;;;;;;;;;5056935;28;20189;-35
2022/10/28 11:48:30;;;;;;;11.00;4.50;;;;;;;;;;5066906;28;20201;-37
2022/10/28 11:51:04;;;;;;;9.67;4.37;;;;;;;;;;5057737;28;20224;-37
2022/10/28 11:53:44;;;;;;;8.40;4.43;;;;;;;;;;5048748;28;20217;-37
2022/10/28 11:56:18;;;;;;;7.07;3.87;;;;;;;;;;5064643;28;20213;-35
2022/10/28 11:58:47;;;;;;;6.73;3.83;;;;;;;;;;5051001;28;20295;-34
2022/10/28 12:01:25;;;;;;;8.10;4.43;;;;;;;;;;5068790;28;20228;-36
2022/10/28 12:04:06;;;;;;;13.87;4.60;;;;;;;;;;5064631;28;20207;-36
2022/10/28 12:06:39;;;;;;;7.87;4.47;;;;;;;;;;5048396;28;20208;-35
2022/10/28 12:09:09;;;;;;;6.93;4.47;;;;;;;;;;5065924;28;20205;-35
2022/10/28 12:11:46;;;;;;;7.73;5.00;;;;;;;;;;5065865;28;20225;-37
2022/10/28 12:14:18;;;;;;;7.17;4.17;;;;;;;;;;5050537;28;20386;-32
2022/10/28 12:16:48;;;;;;;10.20;4.70;;;;;;;;;;5056292;28;20244;-34
2022/10/28 12:19:19;;;;;;;7.17;4.80;;;;;;;;;;5053886;28;20205;-36
2022/10/28 12:21:49;;;;;;;8.13;4.60;;;;;;;;;;5049522;28;20233;-33
2022/10/28 12:24:18;;;;;;;6.57;3.90;;;;;;;;;;5053964;28;20216;-35
2022/10/28 12:26:48;;;;;;;5.83;3.90;;;;;;;;;;5066978;28;20193;-37
2022/10/28 12:29:19;;;;;;;7.37;4.40;;;;;;;;;;5069064;28;20229;-35
2022/10/28 12:31:48;;;;;;;7.07;3.97;;;;;;;;;;5069925;28;20225;-33
2022/10/28 12:34:18;;;;;;;9.40;3.23;;;;;;;;;;5068708;28;20212;-33
2022/10/28 12:36:47;;;;;;;2.43;2.20;;;;;;;;;;5059855;28;20225;-35
2022/10/28 12:39:18;;;;;;;5.80;2.70;;;;;;;;;;5068079;28;20208;-34
2022/10/28 12:41:53;;;;;;;6.47;2.83;;;;;;;;;;5075302;28;20260;-32
2022/10/28 12:44:21;;;;;;;5.20;3.60;;;;;;;;;;5068898;28;20197;-35
2022/10/28 12:46:56;;;;;;;6.37;3.50;;;;;;;;;;5073623;28;20217;-31
2022/10/28 12:49:28;;;;;;;8.10;4.03;;;;;;;;;;5061327;28;20206;-35
2022/10/28 12:51:58;;;;;;;6.77;3.30;;;;;;;;;;5057305;28;20228;-34
2022/10/28 12:54:29;;;;;;;7.17;3.23;;;;;;;;;;5061250;28;20647;-39
2022/10/28 12:57:04;;;;;;;5.93;3.40;;;;;;;;;;5086829;28;20228;-32
2022/10/28 12:59:33;;;;;;;7.67;3.23;;;;;;;;;;5066355;28;20201;-37
2022/10/28 13:02:02;;;;;;;6.17;3.50;;;;;;;;;;5060456;28;20210;-37
2022/10/28 13:04:29;;;;;;;10.23;3.07;;;;;;;;;;5047520;28;20233;-34
2022/10/28 13:07:18;;;;;;;8.87;3.17;;;;;;;;;;5055636;28;20205;-36
2022/10/28 13:09:50;;;;;;;8.13;3.00;;;;;;;;;;5060969;28;20866;-34
2022/10/28 13:12:33;;;;;;;9.33;3.47;;;;;;;;;;5065232;28;20208;-38
2022/10/28 13:15:15;;;;;;;8.07;2.90;;;;;;;;;;5073898;28;20208;-32
2022/10/28 13:17:50;;;;;;;6.63;2.40;;;;;;;;;;5030571;28;20243;-33
2022/10/28 13:20:31;;;;;;;9.50;2.67;;;;;;;;;;5056016;28;20221;-37
2022/10/28 13:23:16;;;;;;;3.63;2.50;;;;;;;;;;5054194;28;20186;-36
2022/10/28 13:26:07;;;;;;;6.87;2.70;;;;;;;;;;5072718;28;20205;-37
2022/10/28 13:28:37;;;;;;;9.43;2.73;;;;;;;;;;5048969;28;20209;-32
2022/10/28 13:31:05;;;;;;;9.20;2.90;;;;;;;;;;5073435;28;20286;-33
2022/10/28 13:33:33;;;;;;;7.07;2.70;;;;;;;;;;5069567;28;20658;-35
2022/10/28 13:36:08;;;;;;;4.53;3.23;;;;;;;;;;5062349;28;20209;-35
2022/10/28 13:38:36;;;;;;;7.03;2.70;;;;;;;;;;5056359;28;20399;-34
2022/10/28 13:41:09;;;;;;;5.33;2.77;;;;;;;;;;5068858;28;20225;-35
2022/10/28 13:43:55;;;;;;;14.80;3.13;;;;;;;;;;5054741;28;20200;-35
2022/10/28 13:46:37;;;;;;;8.70;2.60;;;;;;;;;;5070863;28;20247;-33
2022/10/28 13:49:24;;;;;;;7.87;3.20;;;;;;;;;;5062921;28;20206;-38
2022/10/28 13:51:59;;;;;;;6.23;2.90;;;;;;;;;;5059568;28;20226;-33
2022/10/28 13:54:28;;;;;;;6.07;3.10;;;;;;;;;;5060422;28;20208;-37
2022/10/28 13:56:56;;;;;;;5.53;3.10;;;;;;;;;;5070437;28;20240;-37
2022/10/28 13:59:29;;;;;;;7.03;3.17;;;;;;;;;;5059852;28;20202;-34
2022/10/28 14:01:57;;;;;;;4.97;2.77;;;;;;;;;;5051988;28;20218;-37
2022/10/28 14:04:28;;;;;;;6.77;3.77;;;;;;;;;;5051577;28;20564;-35
2022/10/28 14:07:02;;;;;;;8.07;2.67;;;;;;;;;;5060202;28;20200;-35
2022/10/28 14:09:31;;;;;;;7.53;3.17;;;;;;;;;;5061188;28;20207;-37
2022/10/28 14:12:07;;;;;;;5.20;2.87;;;;;;;;;;5090485;28;20205;-38
2022/10/28 14:14:34;;;;;;;7.67;2.93;;;;;;;;;;5065402;28;20229;-36
2022/10/28 14:17:01;;;;;;;5.37;3.40;;;;;;;;;;5054772;28;20229;-33
2022/10/28 14:19:30;;;;;;;6.20;2.97;;;;;;;;;;5052893;28;20855;-35
2022/10/28 14:21:59;;;;;;;8.10;3.23;;;;;;;;;;5069182;28;20212;-35
2022/10/28 14:24:33;;;;;;;3.77;2.87;;;;;;;;;;5069802;28;20201;-36
2022/10/28 14:27:30;;;;;;;8.70;3.60;;;;;;;;;;5058726;28;20283;-35
2022/10/28 14:30:30;;;;;;;12.07;3.50;;;;;;;;;;5053276;28;20213;-33
2022/10/28 14:33:00;;;;;;;8.90;3.57;;;;;;;;;;5053529;28;20195;-37
2022/10/28 14:35:31;;;;;;;4.73;2.63;;;;;;;;;;5054868;28;20208;-33
2022/10/28 14:38:09;;;;;;;5.83;3.13;;;;;;;;;;5054615;28;20313;-37
2022/10/28 14:40:40;;;;;;;8.43;3.33;;;;;;;;;;5329805;22;20223;-32
2022/10/28 14:43:18;;;;;;;8.50;3.20;;;;;;;;;;5095722;28;20211;-32
2022/10/28 14:45:53;;;;;;;8.97;4.07;;;;;;;;;;5093504;28;20204;-33
2022/10/28 14:48:35;;;;;;;6.67;2.87;;;;;;;;;;5092307;28;20197;-32
2022/10/28 14:51:04;;;;;;;7.33;2.80;;;;;;;;;;5097405;28;20314;-33
2022/10/28 14:53:32;;;;;;;6.60;3.27;;;;;;;;;;5113215;28;20200;-34
2022/10/28 14:56:01;;;;;;;11.30;3.30;;;;;;;;;;5112665;28;20230;-32
2022/10/28 14:58:29;;;;;;;7.07;2.50;;;;;;;;;;5101491;28;20402;-30